Terminal Aerodrome Forecast
Issued by NWS Sterling, VA

Home | Current Version | Previous Version | Text Only | Print | Product List | Glossary On
Versions: 1 2 3 4 5 6 7 8 9 10 11 12 13
000
FTUS41 KLWX 291739
TAFCHO
TAF
KCHO 291739Z 2918/3018 VRB04KT P6SM BKN200
     FM300000 VRB03KT 3SM SHRA OVC030
     FM300400 VRB03KT P6SM OVC025=

USA.gov is the U.S. government's official web portal to all federal, state and local government web resources and services.